Pensacola Beach, Florida
Current Conditions -  °F | °C
As of 3:53 PM on Saturday 25 Oct 2014 (Local Time) from KPNS Reporting Station
Clear Clear  
Wind Chill: 78°   Ceiling: Unl
Heat Index: 78°   Visibility: 10mi
Dew Point: 44°   Wind: 12mph
Humidity: 30%   Direction: 10°N
Pressure: 30.02"   Gusts: 20mph
Location:  30.3906°N, 87.0518°W
Report Text: KPNS 252053Z 01010G17KT 10SM CLR 26/07 A3002 RMK AO2 SLP168 T02560067 56013
Loading
Personal Weather Stations






























Interactive Weather Map
Tropical Storm Tracking
New forecast layout! Learn more

10-Day Weather Forecast

Advertisements
Track Severe Weather on mobile